createdAt,value
2017-12-25T00:00:30.855Z,1.40
2017-12-25T00:02:58.682Z,1.43
2017-12-25T00:05:26.550Z,1.70
2017-12-25T00:07:54.365Z,1.40
2017-12-25T00:10:21.910Z,1.37
2017-12-25T00:12:49.645Z,1.60
2017-12-25T00:15:18.121Z,1.40
2017-12-25T00:17:46.699Z,1.53
2017-12-25T00:20:14.604Z,1.67
2017-12-25T00:22:42.485Z,1.13
2017-12-25T00:25:10.199Z,1.10
2017-12-25T00:27:37.857Z,1.30
2017-12-25T00:30:05.707Z,0.93
2017-12-25T00:32:33.376Z,1.50
2017-12-25T00:35:01.046Z,1.40
2017-12-25T00:37:28.681Z,1.00
2017-12-25T00:39:56.352Z,1.00
2017-12-25T00:42:24.092Z,1.10
2017-12-25T00:44:51.760Z,1.10
2017-12-25T00:47:20.331Z,1.40
2017-12-25T00:49:49.105Z,1.33
2017-12-25T00:52:16.894Z,1.30
2017-12-25T00:54:45.411Z,0.80
2017-12-25T00:57:13.064Z,0.90
2017-12-25T00:59:40.708Z,1.00
2017-12-25T01:02:09.411Z,1.03
2017-12-25T01:04:37.090Z,0.90
2017-12-25T01:07:04.919Z,0.80
2017-12-25T01:09:33.346Z,0.97
2017-12-25T01:12:01.254Z,1.03
2017-12-25T01:14:29.836Z,0.90
2017-12-25T01:16:58.285Z,0.80
2017-12-25T01:19:26.004Z,1.30
2017-12-25T01:21:53.844Z,1.10
2017-12-25T01:24:21.695Z,0.90
2017-12-25T01:26:49.515Z,0.90
2017-12-25T01:29:18.064Z,0.80
2017-12-25T01:31:45.663Z,0.73
2017-12-25T01:34:13.514Z,0.83
2017-12-25T01:36:41.462Z,0.80
2017-12-25T01:39:09.681Z,0.80
2017-12-25T01:41:37.475Z,0.90
2017-12-25T01:44:05.871Z,0.87
2017-12-25T01:46:33.516Z,0.80
2017-12-25T01:49:02.119Z,0.80
2017-12-25T01:51:29.769Z,0.80
2017-12-25T01:53:58.872Z,1.10
2017-12-25T01:56:47.524Z,0.80
2017-12-25T01:59:16.824Z,1.10
2017-12-25T02:04:47.314Z,1.10
2017-12-25T02:07:26.713Z,0.70
2017-12-25T02:09:55.340Z,0.70
2017-12-25T02:12:23.170Z,0.93
2017-12-25T02:14:51.574Z,0.70
2017-12-25T02:17:19.265Z,0.80
2017-12-25T02:19:47.077Z,1.03
2017-12-25T02:22:14.740Z,0.90
2017-12-25T02:24:42.510Z,0.70
2017-12-25T02:27:10.342Z,0.90
2017-12-25T02:29:38.165Z,0.83
2017-12-25T02:32:05.859Z,0.60
2017-12-25T02:34:33.695Z,0.70
2017-12-25T02:37:02.258Z,0.80
2017-12-25T02:39:30.103Z,0.80
2017-12-25T02:41:57.754Z,0.87
2017-12-25T02:44:25.474Z,0.80
2017-12-25T02:46:53.903Z,0.90
2017-12-25T02:49:21.613Z,0.80
2017-12-25T02:51:50.030Z,0.90
2017-12-25T02:54:18.117Z,0.73
2017-12-25T02:56:45.837Z,1.10
2017-12-25T02:59:14.216Z,0.70
2017-12-25T03:01:42.805Z,0.90
2017-12-25T03:04:11.339Z,0.80
2017-12-25T03:06:39.193Z,1.00
2017-12-25T03:09:06.819Z,1.30
2017-12-25T03:11:35.252Z,1.20
2017-12-25T03:14:03.058Z,1.10
2017-12-25T03:16:30.721Z,0.80
2017-12-25T03:18:58.488Z,0.87
2017-12-25T03:21:26.908Z,0.90
2017-12-25T03:23:54.849Z,0.80
2017-12-25T03:26:22.494Z,0.67
2017-12-25T03:28:50.306Z,0.90
2017-12-25T03:31:19.070Z,0.97
2017-12-25T03:33:47.695Z,0.90
2017-12-25T03:36:16.411Z,0.90
2017-12-25T03:38:43.965Z,1.27
2017-12-25T03:41:11.780Z,1.20
2017-12-25T03:43:40.223Z,1.00
2017-12-25T03:46:08.067Z,0.80
2017-12-25T03:48:36.546Z,1.13
2017-12-25T03:51:04.256Z,0.87
2017-12-25T03:53:31.926Z,0.97
2017-12-25T03:55:59.809Z,0.70
2017-12-25T03:58:28.312Z,0.80
2017-12-25T04:00:56.904Z,0.80
2017-12-25T04:03:24.491Z,0.80
2017-12-25T04:05:52.077Z,0.80
2017-12-25T04:08:19.647Z,1.07
2017-12-25T04:10:47.224Z,1.03
2017-12-25T04:13:14.925Z,0.90
2017-12-25T04:15:42.496Z,0.93
2017-12-25T04:18:10.068Z,0.80
2017-12-25T04:20:37.631Z,0.87
2017-12-25T04:23:05.228Z,1.30
2017-12-25T04:25:32.783Z,0.80
2017-12-25T04:28:00.447Z,0.83
2017-12-25T04:30:28.810Z,1.00
2017-12-25T04:32:56.374Z,0.80
2017-12-25T04:35:24.007Z,0.80
2017-12-25T04:37:51.582Z,0.80
2017-12-25T04:40:19.145Z,1.13
2017-12-25T04:42:46.728Z,0.83
2017-12-25T04:45:14.314Z,0.77
2017-12-25T04:47:42.685Z,0.80
2017-12-25T04:50:10.341Z,0.83
2017-12-25T04:52:37.916Z,1.07
2017-12-25T04:55:05.489Z,1.30
2017-12-25T04:57:33.810Z,0.83
2017-12-25T05:00:01.488Z,1.10
2017-12-25T05:02:29.033Z,1.00
2017-12-25T05:04:56.607Z,0.90
2017-12-25T05:07:24.188Z,0.80
2017-12-25T05:09:51.761Z,0.90
2017-12-25T05:12:19.337Z,0.90
2017-12-25T05:14:47.663Z,1.20
2017-12-25T05:17:15.221Z,1.10
2017-12-25T05:19:42.811Z,0.97
2017-12-25T05:22:10.372Z,1.00
2017-12-25T05:24:37.950Z,0.90
2017-12-25T05:27:05.532Z,0.90
2017-12-25T05:29:33.834Z,0.97
2017-12-25T05:32:01.400Z,1.00
2017-12-25T05:34:29.012Z,1.10
2017-12-25T05:36:56.571Z,1.00
2017-12-25T05:39:24.130Z,0.90
2017-12-25T05:41:51.690Z,1.07
2017-12-25T05:44:19.274Z,1.00
2017-12-25T05:46:46.841Z,0.87
2017-12-25T05:49:15.151Z,1.00
2017-12-25T05:51:42.698Z,1.00
2017-12-25T05:54:10.296Z,0.90
2017-12-25T05:56:37.851Z,1.00
2017-12-25T05:59:05.419Z,0.90
2017-12-25T06:01:33.003Z,0.80
2017-12-25T06:04:00.544Z,1.10
2017-12-25T06:06:28.090Z,0.77
2017-12-25T06:08:55.650Z,0.97
2017-12-25T06:11:23.223Z,0.70
2017-12-25T06:13:50.807Z,1.00
2017-12-25T06:16:18.480Z,1.10
2017-12-25T06:18:46.044Z,0.90
2017-12-25T06:21:13.655Z,0.90
2017-12-25T06:23:41.205Z,0.90
2017-12-25T06:26:08.786Z,0.80
2017-12-25T06:28:36.346Z,0.90
2017-12-25T06:31:03.899Z,1.60
2017-12-25T06:33:31.454Z,1.00
2017-12-25T06:35:59.142Z,1.27
2017-12-25T06:38:26.681Z,0.90
2017-12-25T06:40:54.260Z,1.13
2017-12-25T06:43:21.849Z,1.00
2017-12-25T06:45:49.469Z,1.00
2017-12-25T06:48:17.019Z,0.87
2017-12-25T06:50:45.431Z,1.13
2017-12-25T06:53:13.008Z,0.90
2017-12-25T06:55:40.562Z,0.87
2017-12-25T06:58:08.145Z,1.17
2017-12-25T07:00:35.705Z,1.30
2017-12-25T07:03:03.283Z,1.10
2017-12-25T07:05:30.901Z,0.90
2017-12-25T07:07:58.450Z,1.00
2017-12-25T07:10:26.062Z,0.90
2017-12-25T07:12:53.645Z,1.10
2017-12-25T07:15:21.255Z,1.40
2017-12-25T07:17:48.813Z,0.80
2017-12-25T07:20:16.383Z,0.90
2017-12-25T07:22:44.088Z,1.20
2017-12-25T07:25:11.685Z,1.00
2017-12-25T07:27:39.286Z,1.40
2017-12-25T07:30:06.894Z,1.23
2017-12-25T07:32:35.234Z,0.90
2017-12-25T07:35:02.815Z,0.93
2017-12-25T07:37:30.442Z,1.37
2017-12-25T07:39:58.051Z,1.10
2017-12-25T07:42:25.636Z,1.20
2017-12-25T07:44:53.956Z,1.33
2017-12-25T07:47:21.527Z,0.97
2017-12-25T07:49:49.089Z,1.30
2017-12-25T07:52:16.674Z,1.20
2017-12-25T07:54:44.259Z,1.33
2017-12-25T07:57:12.592Z,1.17
2017-12-25T07:59:40.211Z,1.10
2017-12-25T08:02:08.532Z,1.80
2017-12-25T08:04:36.094Z,1.13
2017-12-25T08:07:03.644Z,1.20
2017-12-25T08:09:31.218Z,1.00
2017-12-25T08:11:59.333Z,1.20
2017-12-25T08:14:26.901Z,1.40
2017-12-25T08:16:54.474Z,1.30
2017-12-25T08:19:22.066Z,0.97
2017-12-25T08:21:50.389Z,1.13
2017-12-25T08:24:17.943Z,0.93
2017-12-25T08:26:45.543Z,0.80
2017-12-25T08:29:13.174Z,1.00
2017-12-25T08:31:40.744Z,1.13
2017-12-25T08:34:08.341Z,1.00
2017-12-25T08:36:35.910Z,1.03
2017-12-25T08:39:03.498Z,1.10
2017-12-25T08:41:31.084Z,1.10
2017-12-25T08:43:58.646Z,1.00
2017-12-25T08:46:26.231Z,1.20
2017-12-25T08:48:54.081Z,1.00
2017-12-25T08:51:21.683Z,1.00
2017-12-25T08:53:50.005Z,1.13
2017-12-25T08:56:17.565Z,1.30
2017-12-25T08:58:45.240Z,1.00
2017-12-25T09:01:12.801Z,0.90
2017-12-25T09:03:40.420Z,1.43
2017-12-25T09:06:08.132Z,1.10
2017-12-25T09:08:35.741Z,0.90
2017-12-25T09:11:03.465Z,1.43
2017-12-25T09:13:31.074Z,1.20
2017-12-25T09:15:58.684Z,1.20
2017-12-25T09:18:26.235Z,1.40
2017-12-25T09:20:53.850Z,1.87
2017-12-25T09:23:21.534Z,1.30
2017-12-25T09:25:49.855Z,1.50
2017-12-25T09:28:17.449Z,1.00
2017-12-25T09:30:45.001Z,1.30
2017-12-25T09:33:12.559Z,1.00
2017-12-25T09:35:40.181Z,1.17
2017-12-25T09:38:08.504Z,1.20
2017-12-25T09:40:36.119Z,1.23
2017-12-25T09:43:04.442Z,1.27
2017-12-25T09:45:32.070Z,1.20
2017-12-25T09:48:00.407Z,1.40
2017-12-25T09:50:28.015Z,1.40
2017-12-25T09:52:57.753Z,1.20
2017-12-25T09:55:25.348Z,1.33
2017-12-25T09:57:52.899Z,1.47
2017-12-25T10:00:20.483Z,1.50
2017-12-25T10:02:48.822Z,1.20
2017-12-25T10:05:16.447Z,1.20
2017-12-25T10:07:44.768Z,1.50
2017-12-25T10:10:12.334Z,1.23
2017-12-25T10:12:40.615Z,1.20
2017-12-25T10:15:08.933Z,1.30
2017-12-25T10:17:36.521Z,1.07
2017-12-25T10:20:04.876Z,1.00
2017-12-25T10:22:32.444Z,1.37
2017-12-25T10:25:00.766Z,1.20
2017-12-25T10:27:28.330Z,1.03
2017-12-25T10:29:55.902Z,1.00
2017-12-25T10:32:23.552Z,1.00
2017-12-25T10:34:51.122Z,1.20
2017-12-25T10:37:18.733Z,1.27
2017-12-25T10:39:46.350Z,1.20
2017-12-25T10:42:13.935Z,1.43
2017-12-25T10:44:41.524Z,1.47
2017-12-25T10:47:09.089Z,1.07
2017-12-25T10:49:37.435Z,1.30
2017-12-25T10:52:05.031Z,1.03
2017-12-25T10:54:32.622Z,1.27
2017-12-25T10:57:00.180Z,1.20
2017-12-25T10:59:27.789Z,1.20
2017-12-25T11:01:55.353Z,0.80
2017-12-25T11:04:22.972Z,1.27
2017-12-25T11:06:50.584Z,0.93
2017-12-25T11:09:18.142Z,1.00
2017-12-25T11:11:45.723Z,1.20
2017-12-25T11:14:13.314Z,1.10
2017-12-25T11:16:41.644Z,0.80
2017-12-25T11:19:09.330Z,0.93
2017-12-25T11:21:36.885Z,0.80
2017-12-25T11:24:04.478Z,0.80
2017-12-25T11:26:32.062Z,0.80
2017-12-25T11:28:59.683Z,0.97
2017-12-25T11:31:27.236Z,1.00
2017-12-25T11:33:54.805Z,1.00
2017-12-25T11:36:23.286Z,0.93
2017-12-25T11:38:50.882Z,0.70
2017-12-25T11:41:18.439Z,0.90
2017-12-25T11:43:46.136Z,1.00
2017-12-25T11:46:13.716Z,1.00
2017-12-25T11:48:41.926Z,1.07
2017-12-25T11:51:10.302Z,0.90
2017-12-25T11:53:37.858Z,1.13
2017-12-25T11:56:05.447Z,0.80
2017-12-25T11:58:33.023Z,0.80
2017-12-25T12:01:00.619Z,1.50
2017-12-25T12:03:28.161Z,0.90
2017-12-25T12:05:55.734Z,1.00
2017-12-25T12:08:23.318Z,0.80
2017-12-25T12:10:50.889Z,0.90
2017-12-25T12:13:18.447Z,0.80
2017-12-25T12:15:46.233Z,0.77
2017-12-25T12:18:14.555Z,0.80
2017-12-25T12:20:42.125Z,0.90
2017-12-25T12:23:09.747Z,1.30
2017-12-25T12:25:38.107Z,1.10
2017-12-25T12:28:05.687Z,0.90
2017-12-25T12:30:34.063Z,1.23
2017-12-25T12:33:02.423Z,0.90
2017-12-25T12:35:29.985Z,1.30
2017-12-25T12:37:57.624Z,0.77
2017-12-25T12:40:25.305Z,0.93
2017-12-25T12:42:52.875Z,1.50
2017-12-25T12:45:20.491Z,1.70
2017-12-25T12:47:48.076Z,1.57
2017-12-25T12:50:15.634Z,1.10
2017-12-25T12:52:43.221Z,1.20
2017-12-25T12:55:10.807Z,1.23
2017-12-25T12:57:38.579Z,1.00
2017-12-25T13:00:06.907Z,0.90
2017-12-25T13:02:34.808Z,1.10
2017-12-25T13:05:03.156Z,1.20
2017-12-25T13:07:30.757Z,1.00
2017-12-25T13:09:59.089Z,1.13
2017-12-25T13:12:26.766Z,1.37
2017-12-25T13:14:54.350Z,1.07
2017-12-25T13:17:21.984Z,0.80
2017-12-25T13:19:49.539Z,1.23
2017-12-25T13:22:17.103Z,1.90
2017-12-25T13:24:44.669Z,0.90
2017-12-25T13:27:12.246Z,1.10
2017-12-25T13:29:39.821Z,1.10
2017-12-25T13:32:07.382Z,1.00
2017-12-25T13:34:34.970Z,1.00
2017-12-25T13:37:02.570Z,0.97
2017-12-25T13:39:30.334Z,0.90
2017-12-25T13:41:57.885Z,0.80
2017-12-25T13:44:25.499Z,0.97
2017-12-25T13:46:53.013Z,0.90
2017-12-25T13:49:20.558Z,1.00
2017-12-25T13:51:48.122Z,1.00
2017-12-25T13:54:15.912Z,1.20
2017-12-25T13:56:43.563Z,1.23
2017-12-25T13:59:11.235Z,1.00
2017-12-25T14:01:38.912Z,1.07
2017-12-25T14:04:06.464Z,1.00
2017-12-25T14:06:34.168Z,1.30
2017-12-25T14:09:01.739Z,1.10
2017-12-25T14:11:29.349Z,0.93
2017-12-25T14:13:56.918Z,1.10
2017-12-25T14:16:24.511Z,1.00
2017-12-25T14:18:52.090Z,1.03
2017-12-25T14:21:21.089Z,1.10
2017-12-25T14:23:48.650Z,1.00
2017-12-25T14:26:17.162Z,1.10
2017-12-25T14:28:44.890Z,1.10
2017-12-25T14:31:13.206Z,1.30
2017-12-25T14:33:40.786Z,1.00
2017-12-25T14:36:08.377Z,0.87
2017-12-25T14:38:35.970Z,1.00
2017-12-25T14:41:04.293Z,1.00
2017-12-25T14:43:31.851Z,1.10
2017-12-25T14:45:59.442Z,1.27
2017-12-25T14:48:27.016Z,1.10
2017-12-25T14:50:54.584Z,1.17
2017-12-25T14:53:22.193Z,1.00
2017-12-25T14:55:49.805Z,0.80
2017-12-25T14:58:17.368Z,0.90
2017-12-25T15:00:44.966Z,1.30
2017-12-25T15:03:12.537Z,1.20
2017-12-25T15:05:40.275Z,1.10
2017-12-25T15:08:08.643Z,1.30
2017-12-25T15:10:36.211Z,1.17
2017-12-25T15:13:03.793Z,1.00
2017-12-25T15:15:31.386Z,1.30
2017-12-25T15:17:58.951Z,1.10
2017-12-25T15:20:26.533Z,1.50
2017-12-25T15:22:54.115Z,1.17
2017-12-25T15:25:21.754Z,1.30
2017-12-25T15:27:49.319Z,1.10
2017-12-25T15:30:17.414Z,1.20
2017-12-25T15:32:44.997Z,1.40
2017-12-25T15:35:13.346Z,1.20
2017-12-25T15:37:41.153Z,1.20
2017-12-25T15:40:09.513Z,0.90
2017-12-25T15:42:37.123Z,1.00
2017-12-25T15:45:04.687Z,1.08
2017-12-25T15:47:33.281Z,1.50
2017-12-25T15:50:00.870Z,1.00
2017-12-25T15:52:28.501Z,1.10
2017-12-25T15:54:56.055Z,1.10
2017-12-25T15:57:23.732Z,0.90
2017-12-25T15:59:51.327Z,1.10
2017-12-25T16:02:18.917Z,1.00
2017-12-25T16:04:47.279Z,1.10
2017-12-25T16:07:15.631Z,1.85
2017-12-25T16:09:43.228Z,1.90
2017-12-25T16:12:11.653Z,1.55
2017-12-25T16:14:39.239Z,1.70
2017-12-25T16:17:06.806Z,1.60
2017-12-25T16:19:34.388Z,1.40
2017-12-25T16:22:01.920Z,1.30
2017-12-25T16:24:29.512Z,1.50
2017-12-25T16:26:57.085Z,1.50
2017-12-25T16:29:25.424Z,1.65
2017-12-25T16:31:53.056Z,1.85
2017-12-25T16:34:21.449Z,1.62
2017-12-25T16:36:49.044Z,9.73
2017-12-25T16:39:17.502Z,16.08
2017-12-25T16:41:45.091Z,1.85
2017-12-25T16:44:12.753Z,2.05
2017-12-25T16:46:40.321Z,1.90
2017-12-25T16:49:08.017Z,2.15
2017-12-25T16:51:36.359Z,1.60
2017-12-25T16:54:03.943Z,1.50
2017-12-25T16:56:31.498Z,1.10
2017-12-25T16:58:59.082Z,1.23
2017-12-25T17:01:26.858Z,1.37
2017-12-25T17:03:54.451Z,1.12
2017-12-25T17:06:22.021Z,1.27
2017-12-25T17:08:49.732Z,1.35
2017-12-25T17:11:18.397Z,1.60
2017-12-25T17:13:46.014Z,1.40
2017-12-25T17:16:14.359Z,1.33
2017-12-25T17:18:41.905Z,1.62
2017-12-25T17:21:09.545Z,1.30
2017-12-25T17:23:37.076Z,1.20
2017-12-25T17:26:05.450Z,1.87
2017-12-25T17:28:33.796Z,1.40
2017-12-25T17:31:01.484Z,1.80
2017-12-25T17:33:29.056Z,1.30
2017-12-25T17:35:56.944Z,1.70
2017-12-25T17:38:24.526Z,1.52
2017-12-25T17:40:52.086Z,1.30
2017-12-25T17:43:19.678Z,1.45
2017-12-25T17:45:47.350Z,1.30
2017-12-25T17:48:14.902Z,1.40
2017-12-25T17:50:42.788Z,1.33
2017-12-25T17:53:10.469Z,1.30
2017-12-25T17:55:38.095Z,1.40
2017-12-25T17:58:05.753Z,1.23
2017-12-25T18:00:33.401Z,1.40
2017-12-25T18:03:01.009Z,1.25
2017-12-25T18:05:28.618Z,1.05
2017-12-25T18:07:56.227Z,1.20
2017-12-25T18:10:23.793Z,1.20
2017-12-25T18:12:51.426Z,1.55
2017-12-25T18:15:18.998Z,1.00
2017-12-25T18:17:46.586Z,1.50
2017-12-25T18:20:14.127Z,1.52
2017-12-25T18:22:41.678Z,1.30
2017-12-25T18:25:09.266Z,1.55
2017-12-25T18:27:37.597Z,1.48
2017-12-25T18:30:05.259Z,1.17
2017-12-25T18:32:32.829Z,1.17
2017-12-25T18:35:00.434Z,1.30
2017-12-25T18:37:27.998Z,1.35
2017-12-25T18:39:55.626Z,1.85
2017-12-25T18:42:23.375Z,1.60
2017-12-25T18:44:50.934Z,1.62
2017-12-25T18:47:18.531Z,1.80
2017-12-25T18:49:46.230Z,2.10
2017-12-25T18:52:13.778Z,2.10
2017-12-25T18:54:41.358Z,2.20
2017-12-25T18:57:09.885Z,2.80
2017-12-25T18:59:37.450Z,2.60
2017-12-25T19:02:05.062Z,3.22
2017-12-25T19:04:33.376Z,2.20
2017-12-25T19:07:00.998Z,2.53
2017-12-25T19:09:28.569Z,2.22
2017-12-25T19:11:56.172Z,2.40
2017-12-25T19:14:24.509Z,2.45
2017-12-25T19:16:52.103Z,2.37
2017-12-25T19:19:20.491Z,2.37
2017-12-25T19:21:48.856Z,2.53
2017-12-25T19:24:16.465Z,2.60
2017-12-25T19:26:43.994Z,2.42
2017-12-25T19:29:11.591Z,2.50
2017-12-25T19:31:39.146Z,2.40
2017-12-25T19:34:06.761Z,2.70
2017-12-25T19:36:34.357Z,2.60
2017-12-25T19:39:02.708Z,3.08
2017-12-25T19:41:30.287Z,2.62
2017-12-25T19:43:58.802Z,2.20
2017-12-25T19:46:26.377Z,2.60
2017-12-25T19:48:54.022Z,2.42
2017-12-25T19:51:21.619Z,2.30
2017-12-25T19:53:49.213Z,2.60
2017-12-25T19:56:17.617Z,2.42
2017-12-25T19:58:45.267Z,3.17
2017-12-25T20:01:13.694Z,2.40
2017-12-25T20:03:41.435Z,2.95
2017-12-25T20:06:09.320Z,2.83
2017-12-25T20:08:36.941Z,2.40
2017-12-25T20:11:04.844Z,3.37
2017-12-25T20:13:32.499Z,3.12
2017-12-25T20:16:00.224Z,2.75
2017-12-25T20:18:27.953Z,2.80
2017-12-25T20:20:55.561Z,3.10
2017-12-25T20:23:23.963Z,3.33
2017-12-25T20:25:51.608Z,3.75
2017-12-25T20:28:20.025Z,3.50
2017-12-25T20:30:47.697Z,3.45
2017-12-25T20:33:15.262Z,2.92
2017-12-25T20:35:43.264Z,3.25
2017-12-25T20:38:11.085Z,3.33
2017-12-25T20:40:38.742Z,3.08
2017-12-25T20:43:06.510Z,2.95
2017-12-25T20:45:34.217Z,4.50
2017-12-25T20:48:02.149Z,2.87
2017-12-25T20:50:29.834Z,3.00
2017-12-25T20:52:57.446Z,3.05
2017-12-25T20:55:25.019Z,3.00
2017-12-25T20:57:53.396Z,3.05
2017-12-25T21:00:23.364Z,3.42
2017-12-25T21:02:51.251Z,3.87
2017-12-25T21:05:18.863Z,3.42
2017-12-25T21:07:46.541Z,3.78
2017-12-25T21:10:14.226Z,3.62
2017-12-25T21:12:45.796Z,4.20
2017-12-25T21:15:13.457Z,4.90
2017-12-25T21:17:41.198Z,3.40
2017-12-25T21:20:08.816Z,3.90
2017-12-25T21:22:37.363Z,4.05
2017-12-25T21:25:05.072Z,4.30
2017-12-25T21:27:32.935Z,3.97
2017-12-25T21:30:02.624Z,4.50
2017-12-25T21:32:31.087Z,3.60
2017-12-25T21:34:58.668Z,3.83
2017-12-25T21:37:26.584Z,5.25
2017-12-25T21:39:54.492Z,3.58
2017-12-25T21:42:22.382Z,4.45
2017-12-25T21:44:50.144Z,4.65
2017-12-25T21:47:18.013Z,4.95
2017-12-25T21:49:45.637Z,4.43
2017-12-25T21:52:13.267Z,4.95
2017-12-25T21:54:41.602Z,4.60
2017-12-25T21:57:09.176Z,5.68
2017-12-25T21:59:36.785Z,5.37
2017-12-25T22:02:04.501Z,7.20
2017-12-25T22:04:32.238Z,5.35
2017-12-25T22:07:00.057Z,6.28
2017-12-25T22:09:27.681Z,5.72
2017-12-25T22:11:55.226Z,6.60
2017-12-25T22:14:22.964Z,5.15
2017-12-25T22:16:50.528Z,5.82
2017-12-25T22:19:18.092Z,5.80
2017-12-25T22:21:45.765Z,4.80
2017-12-25T22:24:15.202Z,5.45
2017-12-25T22:26:42.789Z,5.03
2017-12-25T22:29:10.391Z,5.87
2017-12-25T22:31:37.984Z,5.18
2017-12-25T22:34:05.546Z,4.95
2017-12-25T22:36:33.155Z,5.10
2017-12-25T22:39:00.752Z,5.20
2017-12-25T22:41:28.308Z,5.70
2017-12-25T22:43:55.870Z,6.50
2017-12-25T22:46:23.431Z,5.65
2017-12-25T22:48:51.243Z,5.93
2017-12-25T22:51:19.564Z,5.72
2017-12-25T22:53:47.165Z,6.07
2017-12-25T22:56:14.730Z,6.22
2017-12-25T22:58:42.304Z,6.57
2017-12-25T23:01:10.718Z,6.50
2017-12-25T23:03:38.310Z,5.93
2017-12-25T23:06:05.908Z,5.55
2017-12-25T23:08:34.242Z,6.30
2017-12-25T23:11:02.010Z,5.55
2017-12-25T23:13:29.587Z,5.22
2017-12-25T23:15:57.134Z,5.07
2017-12-25T23:18:24.685Z,5.03
2017-12-25T23:20:52.401Z,4.78
2017-12-25T23:23:20.770Z,4.45
2017-12-25T23:25:49.111Z,4.55
2017-12-25T23:28:16.725Z,5.35
2017-12-25T23:30:44.438Z,4.20
2017-12-25T23:33:12.207Z,4.45
2017-12-25T23:35:40.062Z,4.28
2017-12-25T23:38:07.753Z,5.00
2017-12-25T23:40:35.536Z,4.68
2017-12-25T23:43:03.189Z,4.18
2017-12-25T23:45:30.805Z,4.40
2017-12-25T23:47:58.373Z,4.93
2017-12-25T23:50:26.283Z,4.80
2017-12-25T23:52:53.848Z,4.50
2017-12-25T23:55:21.412Z,5.05
2017-12-25T23:57:48.994Z,4.07
